createdAt,value
2022-12-23T00:00:37.062Z,14.60
2022-12-23T00:01:37.211Z,14.50
2022-12-23T00:02:37.236Z,13.20
2022-12-23T00:03:37.091Z,14.60
2022-12-23T00:04:37.011Z,13.10
2022-12-23T00:05:38.134Z,13.90
2022-12-23T00:06:37.016Z,14.70
2022-12-23T00:07:37.011Z,14.40
2022-12-23T00:08:36.968Z,15.40
2022-12-23T00:09:36.956Z,15.50
2022-12-23T00:10:36.945Z,15.50
2022-12-23T00:11:36.949Z,15.80
2022-12-23T00:12:36.928Z,16.50
2022-12-23T00:13:36.899Z,16.20
2022-12-23T00:14:36.925Z,14.10
2022-12-23T00:15:36.886Z,15.30
2022-12-23T00:16:37.003Z,17.00
2022-12-23T00:17:36.871Z,16.20
2022-12-23T00:18:36.889Z,16.90
2022-12-23T00:19:36.838Z,16.40
2022-12-23T00:20:36.832Z,17.30
2022-12-23T00:21:36.833Z,18.40
2022-12-23T00:22:36.822Z,15.60
2022-12-23T00:23:36.804Z,17.00
2022-12-23T00:24:36.783Z,16.40
2022-12-23T00:25:36.832Z,17.30
2022-12-23T00:26:36.775Z,17.80
2022-12-23T00:27:37.829Z,16.60
2022-12-23T00:28:36.751Z,17.50
2022-12-23T00:29:36.794Z,15.30
2022-12-23T00:30:36.733Z,17.30
2022-12-23T00:31:36.795Z,16.00
2022-12-23T00:32:36.731Z,17.10
2022-12-23T00:33:36.740Z,16.50
2022-12-23T00:34:36.674Z,16.20
2022-12-23T00:35:36.765Z,16.50
2022-12-23T00:36:36.704Z,15.90
2022-12-23T00:37:36.676Z,15.50
2022-12-23T00:38:36.626Z,16.70
2022-12-23T00:39:36.637Z,17.00
2022-12-23T00:40:36.651Z,17.60
2022-12-23T00:41:36.599Z,17.20
2022-12-23T00:42:36.609Z,17.80
2022-12-23T00:43:36.577Z,17.50
2022-12-23T00:44:36.573Z,16.90
2022-12-23T00:45:36.608Z,17.10
2022-12-23T00:46:36.548Z,17.80
2022-12-23T00:47:36.561Z,17.10
2022-12-23T00:48:36.515Z,17.90
2022-12-23T00:49:36.515Z,16.60
2022-12-23T00:50:36.511Z,17.10
2022-12-23T00:51:36.481Z,17.20
2022-12-23T00:52:36.487Z,16.90
2022-12-23T00:53:36.497Z,17.30
2022-12-23T00:54:36.480Z,17.60
2022-12-23T00:55:36.436Z,17.50
2022-12-23T00:56:36.433Z,16.70
2022-12-23T00:57:36.454Z,16.60
2022-12-23T00:58:36.407Z,18.40
2022-12-23T00:59:36.414Z,17.50
2022-12-23T01:00:41.407Z,19.00
2022-12-23T01:01:36.508Z,16.80
2022-12-23T01:02:36.574Z,18.90
2022-12-23T01:03:36.386Z,19.50
2022-12-23T01:04:36.379Z,19.50
2022-12-23T01:05:36.358Z,22.00
2022-12-23T01:06:36.315Z,15.10
2022-12-23T01:07:36.341Z,16.60
2022-12-23T01:08:36.288Z,18.70
2022-12-23T01:09:36.278Z,16.40
2022-12-23T01:10:36.306Z,19.10
2022-12-23T01:11:36.260Z,19.50
2022-12-23T01:12:36.269Z,16.90
2022-12-23T01:13:36.264Z,17.00
2022-12-23T01:14:36.235Z,17.60
2022-12-23T01:15:36.219Z,22.20
2022-12-23T01:16:36.252Z,18.60
2022-12-23T01:17:36.233Z,21.60
2022-12-23T01:18:36.204Z,20.30
2022-12-23T01:19:36.191Z,17.70
2022-12-23T01:20:36.172Z,17.90
2022-12-23T01:21:36.154Z,17.50
2022-12-23T01:22:36.150Z,18.30
2022-12-23T01:23:36.137Z,18.00
2022-12-23T01:24:36.118Z,20.10
2022-12-23T01:25:36.112Z,22.70
2022-12-23T01:26:36.111Z,21.80
2022-12-23T01:27:36.101Z,20.60
2022-12-23T01:28:36.061Z,18.00
2022-12-23T01:29:36.061Z,18.20
2022-12-23T01:30:36.099Z,19.40
2022-12-23T01:31:36.116Z,19.10
2022-12-23T01:32:36.061Z,20.10
2022-12-23T01:33:36.028Z,20.70
2022-12-23T01:34:37.595Z,19.00
2022-12-23T01:35:36.002Z,17.70
2022-12-23T01:36:35.984Z,18.40
2022-12-23T01:37:36.024Z,20.50
2022-12-23T01:38:35.999Z,19.90
2022-12-23T01:39:35.956Z,19.60
2022-12-23T01:40:35.946Z,18.50
2022-12-23T01:41:35.950Z,18.40
2022-12-23T01:42:35.947Z,20.40
2022-12-23T01:43:35.911Z,20.00
2022-12-23T01:44:35.886Z,21.30
2022-12-23T01:45:35.958Z,20.00
2022-12-23T01:46:35.883Z,21.10
2022-12-23T01:47:35.906Z,18.90
2022-12-23T01:48:35.859Z,18.00
2022-12-23T01:49:35.839Z,18.40
2022-12-23T01:50:35.837Z,17.70
2022-12-23T01:51:35.827Z,18.60
2022-12-23T01:52:35.830Z,22.20
2022-12-23T01:53:35.799Z,23.60
2022-12-23T01:54:35.775Z,23.10
2022-12-23T01:55:35.772Z,20.80
2022-12-23T01:56:35.762Z,19.90
2022-12-23T01:57:35.856Z,25.30
2022-12-23T01:58:35.736Z,25.40
2022-12-23T01:59:35.731Z,22.10
2022-12-23T02:00:35.724Z,20.80
2022-12-23T02:01:35.798Z,22.10
2022-12-23T02:02:35.843Z,20.40
2022-12-23T02:03:35.725Z,22.60
2022-12-23T02:04:35.667Z,23.80
2022-12-23T02:05:35.694Z,24.30
2022-12-23T02:06:35.648Z,21.10
2022-12-23T02:07:35.700Z,23.50
2022-12-23T02:08:35.647Z,20.30
2022-12-23T02:09:35.644Z,21.80
2022-12-23T02:10:35.612Z,21.40
2022-12-23T02:11:35.614Z,25.60
2022-12-23T02:12:35.605Z,21.40
2022-12-23T02:13:35.571Z,25.80
2022-12-23T02:14:35.606Z,25.50
2022-12-23T02:15:35.563Z,23.70
2022-12-23T02:16:35.613Z,23.30
2022-12-23T02:17:35.564Z,22.20
2022-12-23T02:18:35.531Z,19.90
2022-12-23T02:19:35.553Z,21.00
2022-12-23T02:20:35.567Z,23.10
2022-12-23T02:21:35.496Z,20.20
2022-12-23T02:22:35.534Z,21.30
2022-12-23T02:23:35.459Z,21.60
2022-12-23T02:24:35.451Z,21.10
2022-12-23T02:25:35.459Z,25.30
2022-12-23T02:26:35.436Z,24.60
2022-12-23T02:27:36.212Z,23.70
2022-12-23T02:28:35.403Z,20.30
2022-12-23T02:29:35.404Z,21.70
2022-12-23T02:30:35.429Z,22.00
2022-12-23T02:31:35.393Z,20.20
2022-12-23T02:32:35.387Z,21.60
2022-12-23T02:33:35.362Z,21.30
2022-12-23T02:34:35.341Z,25.10
2022-12-23T02:35:35.340Z,23.60
2022-12-23T02:36:35.313Z,26.20
2022-12-23T02:37:35.324Z,24.90
2022-12-23T02:38:35.301Z,23.60
2022-12-23T02:39:35.296Z,23.00
2022-12-23T02:40:35.267Z,23.60
2022-12-23T02:41:35.305Z,27.10
2022-12-23T02:42:35.275Z,24.80
2022-12-23T02:43:35.241Z,21.70
2022-12-23T02:44:35.232Z,22.60
2022-12-23T02:45:35.249Z,27.10
2022-12-23T02:46:35.262Z,26.40
2022-12-23T02:47:35.235Z,28.90
2022-12-23T02:48:35.188Z,22.90
2022-12-23T02:49:35.171Z,22.70
2022-12-23T02:50:35.168Z,23.80
2022-12-23T02:51:35.145Z,23.60
2022-12-23T02:52:35.156Z,29.10
2022-12-23T02:53:35.134Z,22.80
2022-12-23T02:54:35.112Z,21.60
2022-12-23T02:55:35.121Z,25.70
2022-12-23T02:56:35.091Z,24.90
2022-12-23T02:57:35.099Z,26.20
2022-12-23T02:58:35.088Z,21.50
2022-12-23T02:59:35.076Z,24.30
2022-12-23T03:00:35.056Z,25.40
2022-12-23T03:01:35.151Z,27.40
2022-12-23T03:02:35.421Z,23.90
2022-12-23T03:03:35.151Z,26.20
2022-12-23T03:04:35.018Z,24.00
2022-12-23T03:05:34.990Z,26.70
2022-12-23T03:06:34.995Z,29.90
2022-12-23T03:07:34.999Z,28.10
2022-12-23T03:08:34.994Z,29.20
2022-12-23T03:09:34.952Z,26.90
2022-12-23T03:10:34.939Z,25.60
2022-12-23T03:11:34.945Z,22.80
2022-12-23T03:12:34.945Z,21.80
2022-12-23T03:13:34.906Z,25.30
2022-12-23T03:14:34.936Z,26.90
2022-12-23T03:15:34.974Z,22.50
2022-12-23T03:16:34.896Z,22.40
2022-12-23T03:17:34.932Z,22.30
2022-12-23T03:18:34.874Z,20.60
2022-12-23T03:19:34.840Z,23.30
2022-12-23T03:20:34.821Z,30.10
2022-12-23T03:21:34.822Z,26.80
2022-12-23T03:22:34.809Z,25.90
2022-12-23T03:23:34.816Z,23.20
2022-12-23T03:24:34.799Z,25.60
2022-12-23T03:25:34.777Z,26.90
2022-12-23T03:26:34.762Z,23.20
2022-12-23T03:27:34.762Z,21.20
2022-12-23T03:28:34.774Z,23.90
2022-12-23T03:29:34.719Z,23.60
2022-12-23T03:30:34.749Z,23.80
2022-12-23T03:31:34.795Z,29.90
2022-12-23T03:32:34.703Z,24.70
2022-12-23T03:33:34.714Z,23.60
2022-12-23T03:34:34.678Z,22.30
2022-12-23T03:35:34.671Z,26.00
2022-12-23T03:36:34.647Z,24.90
2022-12-23T03:37:34.661Z,23.60
2022-12-23T03:38:34.654Z,23.20
2022-12-23T03:39:34.633Z,25.10
2022-12-23T03:40:34.650Z,26.80
2022-12-23T03:41:34.597Z,26.40
2022-12-23T03:42:34.582Z,19.80
2022-12-23T03:43:34.589Z,26.50
2022-12-23T03:44:34.566Z,20.10
2022-12-23T03:45:39.717Z,30.80
2022-12-23T03:46:34.709Z,22.10
2022-12-23T03:47:34.530Z,19.30
2022-12-23T03:48:34.559Z,25.80
2022-12-23T03:49:34.517Z,23.50
2022-12-23T03:50:34.498Z,22.60
2022-12-23T03:51:34.504Z,19.10
2022-12-23T03:52:34.472Z,20.20
2022-12-23T03:53:34.503Z,21.20
2022-12-23T03:54:34.468Z,24.90
2022-12-23T03:55:34.464Z,21.70
2022-12-23T03:56:34.435Z,24.10
2022-12-23T03:57:34.418Z,25.90
2022-12-23T03:58:34.435Z,32.40
2022-12-23T03:59:34.413Z,19.90
2022-12-23T04:00:34.382Z,20.40
2022-12-23T04:01:34.479Z,24.50
2022-12-23T04:02:34.446Z,25.10
2022-12-23T04:03:34.435Z,21.20
2022-12-23T04:04:34.363Z,21.50
2022-12-23T04:05:34.339Z,21.00
2022-12-23T04:06:34.316Z,21.70
2022-12-23T04:07:34.320Z,23.50
2022-12-23T04:08:34.304Z,21.70
2022-12-23T04:09:34.289Z,23.10
2022-12-23T04:10:34.295Z,25.50
2022-12-23T04:11:34.261Z,23.10
2022-12-23T04:12:34.262Z,20.60
2022-12-23T04:13:34.280Z,25.80
2022-12-23T04:14:34.235Z,23.10
2022-12-23T04:15:34.227Z,24.50
2022-12-23T04:16:34.253Z,21.50
2022-12-23T04:17:34.192Z,25.20
2022-12-23T04:18:34.203Z,23.10
2022-12-23T04:19:34.191Z,21.70
2022-12-23T04:20:34.161Z,22.30
2022-12-23T04:21:34.171Z,21.40
2022-12-23T04:22:34.165Z,21.60
2022-12-23T04:23:34.151Z,19.40
2022-12-23T04:24:34.126Z,23.80
2022-12-23T04:25:34.123Z,24.20
2022-12-23T04:26:34.091Z,22.20
2022-12-23T04:27:34.077Z,20.00
2022-12-23T04:28:34.090Z,24.80
2022-12-23T04:29:34.071Z,20.60
2022-12-23T04:30:34.959Z,20.60
2022-12-23T04:31:34.145Z,20.60
2022-12-23T04:32:34.053Z,20.60
2022-12-23T04:33:34.049Z,22.90
2022-12-23T04:34:34.023Z,19.30
2022-12-23T04:35:33.995Z,18.50
2022-12-23T04:36:33.988Z,20.40
2022-12-23T04:37:33.977Z,27.80
2022-12-23T04:38:33.990Z,21.50
2022-12-23T04:39:33.966Z,19.00
2022-12-23T04:40:33.951Z,21.30
2022-12-23T04:41:33.951Z,23.60
2022-12-23T04:42:33.945Z,23.50
2022-12-23T04:43:33.929Z,27.10
2022-12-23T04:44:33.893Z,19.50
2022-12-23T04:45:33.888Z,22.20
2022-12-23T04:46:33.959Z,19.70
2022-12-23T04:47:33.862Z,20.20
2022-12-23T04:48:33.879Z,20.20
2022-12-23T04:49:33.842Z,23.20
2022-12-23T04:50:33.860Z,22.00
2022-12-23T04:51:33.827Z,23.80
2022-12-23T04:52:33.812Z,22.10
2022-12-23T04:53:33.818Z,20.80
2022-12-23T04:54:33.789Z,24.90
2022-12-23T04:55:33.796Z,22.70
2022-12-23T04:56:33.792Z,22.80
2022-12-23T04:57:33.749Z,21.30
2022-12-23T04:58:33.770Z,20.30
2022-12-23T04:59:33.737Z,19.20
2022-12-23T05:00:39.153Z,24.50
2022-12-23T05:01:33.918Z,20.20
2022-12-23T05:02:33.799Z,22.50
2022-12-23T05:03:33.771Z,18.80
2022-12-23T05:04:33.732Z,24.10
2022-12-23T05:05:33.675Z,21.50
2022-12-23T05:06:33.657Z,21.20
2022-12-23T05:07:33.651Z,21.40
2022-12-23T05:08:33.646Z,21.40
2022-12-23T05:09:33.629Z,22.80
2022-12-23T05:10:33.642Z,23.50
2022-12-23T05:11:38.532Z,24.70
2022-12-23T05:12:33.587Z,23.00
2022-12-23T05:13:33.606Z,26.70
2022-12-23T05:14:33.569Z,20.70
2022-12-23T05:15:33.566Z,19.70
2022-12-23T05:16:33.641Z,21.80
2022-12-23T05:17:33.547Z,24.10
2022-12-23T05:18:33.562Z,24.20
2022-12-23T05:19:33.511Z,23.10
2022-12-23T05:20:33.505Z,21.80
2022-12-23T05:21:33.488Z,21.20
2022-12-23T05:22:33.480Z,24.90
2022-12-23T05:23:33.505Z,25.00
2022-12-23T05:24:33.460Z,24.60
2022-12-23T05:25:33.446Z,20.80
2022-12-23T05:26:33.439Z,20.90
2022-12-23T05:27:33.424Z,20.20
2022-12-23T05:28:33.420Z,20.10
2022-12-23T05:29:33.482Z,24.80
2022-12-23T05:30:33.393Z,23.10
2022-12-23T05:31:33.477Z,23.10
2022-12-23T05:32:33.375Z,21.40
2022-12-23T05:33:33.411Z,20.60
2022-12-23T05:34:33.361Z,19.70
2022-12-23T05:35:33.353Z,23.30
2022-12-23T05:36:33.326Z,21.70
2022-12-23T05:37:33.313Z,19.40
2022-12-23T05:38:33.307Z,20.20
2022-12-23T05:39:33.297Z,22.60
2022-12-23T05:40:33.787Z,25.40
2022-12-23T05:41:33.273Z,23.70
2022-12-23T05:42:33.251Z,21.90
2022-12-23T05:43:33.248Z,22.90
2022-12-23T05:44:33.243Z,22.40
2022-12-23T05:45:33.277Z,21.40
2022-12-23T05:46:33.322Z,21.00
2022-12-23T05:47:33.200Z,24.40
2022-12-23T05:48:33.197Z,20.00
2022-12-23T05:49:33.202Z,23.00
2022-12-23T05:50:33.178Z,22.50
2022-12-23T05:51:33.147Z,23.30
2022-12-23T05:52:33.170Z,24.30
2022-12-23T05:53:33.134Z,24.30
2022-12-23T05:54:33.171Z,19.00
2022-12-23T05:55:33.107Z,21.20
2022-12-23T05:56:33.107Z,19.30
2022-12-23T05:57:33.126Z,19.10
2022-12-23T05:58:33.085Z,21.60
2022-12-23T05:59:33.071Z,21.70
2022-12-23T06:00:33.062Z,24.90
2022-12-23T06:01:33.070Z,24.10
2022-12-23T06:02:33.296Z,23.80
2022-12-23T06:03:33.321Z,29.80
2022-12-23T06:04:33.010Z,27.50
2022-12-23T06:05:32.997Z,21.60
2022-12-23T06:06:33.002Z,23.30
2022-12-23T06:07:32.995Z,22.20
2022-12-23T06:08:32.967Z,24.30
2022-12-23T06:09:32.969Z,22.70
2022-12-23T06:10:32.976Z,27.60
2022-12-23T06:11:32.936Z,20.50
2022-12-23T06:12:32.927Z,22.20
2022-12-23T06:13:32.925Z,23.20
2022-12-23T06:14:32.924Z,28.60
2022-12-23T06:15:32.901Z,21.60
2022-12-23T06:16:32.909Z,22.70
2022-12-23T06:17:32.959Z,23.00
2022-12-23T06:18:32.872Z,26.00
2022-12-23T06:19:32.846Z,24.10
2022-12-23T06:20:32.854Z,23.20
2022-12-23T06:21:32.861Z,23.50
2022-12-23T06:22:32.811Z,20.40
2022-12-23T06:23:32.799Z,26.80
2022-12-23T06:24:32.799Z,26.50
2022-12-23T06:25:32.828Z,24.70
2022-12-23T06:26:32.776Z,26.60
2022-12-23T06:27:32.764Z,22.50
2022-12-23T06:28:32.776Z,27.50
2022-12-23T06:29:32.734Z,23.00
2022-12-23T06:30:32.736Z,24.10
2022-12-23T06:31:32.769Z,24.90
2022-12-23T06:32:37.904Z,24.40
2022-12-23T06:33:32.706Z,27.90
2022-12-23T06:34:32.684Z,29.20
2022-12-23T06:35:32.749Z,23.70
2022-12-23T06:36:32.665Z,27.80
2022-12-23T06:37:32.650Z,23.80
2022-12-23T06:38:32.665Z,29.00
2022-12-23T06:39:32.636Z,27.30
2022-12-23T06:40:32.640Z,28.40
2022-12-23T06:41:32.613Z,22.50
2022-12-23T06:42:32.612Z,28.40
2022-12-23T06:43:32.601Z,24.40
2022-12-23T06:44:32.568Z,27.20
2022-12-23T06:45:32.623Z,25.20
2022-12-23T06:46:32.587Z,27.10
2022-12-23T06:47:32.535Z,26.90
2022-12-23T06:48:32.553Z,25.00
2022-12-23T06:49:32.515Z,30.90
2022-12-23T06:50:32.520Z,26.50
2022-12-23T06:51:33.570Z,30.70
2022-12-23T06:52:32.501Z,24.70
2022-12-23T06:53:32.479Z,23.70
2022-12-23T06:54:32.480Z,25.80
2022-12-23T06:55:32.464Z,26.20
2022-12-23T06:56:32.453Z,22.10
2022-12-23T06:57:32.425Z,24.20
2022-12-23T06:58:32.464Z,28.40
2022-12-23T06:59:32.399Z,26.40
2022-12-23T07:00:32.399Z,21.80
2022-12-23T07:01:32.497Z,23.80
2022-12-23T07:02:32.437Z,29.40
2022-12-23T07:03:32.393Z,22.50
2022-12-23T07:04:32.360Z,22.30
2022-12-23T07:05:36.944Z,25.60
2022-12-23T07:06:32.330Z,26.00
2022-12-23T07:07:32.320Z,23.90
2022-12-23T07:08:32.323Z,23.10
2022-12-23T07:09:32.295Z,24.70
2022-12-23T07:10:32.295Z,25.20
2022-12-23T07:11:32.275Z,21.20
2022-12-23T07:12:32.258Z,24.60
2022-12-23T07:13:32.249Z,20.30
2022-12-23T07:14:32.240Z,19.00
2022-12-23T07:15:32.281Z,21.60
2022-12-23T07:16:32.240Z,23.40
2022-12-23T07:17:32.225Z,24.50
2022-12-23T07:18:32.193Z,22.10
2022-12-23T07:19:32.198Z,21.00
2022-12-23T07:20:32.195Z,24.40
2022-12-23T07:21:32.159Z,21.10
2022-12-23T07:22:32.174Z,20.60
2022-12-23T07:23:32.140Z,20.10
2022-12-23T07:24:32.143Z,20.80
2022-12-23T07:25:32.134Z,24.80
2022-12-23T07:26:32.119Z,20.50
2022-12-23T07:27:32.127Z,28.40
2022-12-23T07:28:32.100Z,24.00
2022-12-23T07:29:32.633Z,20.40
2022-12-23T07:30:32.076Z,23.30
2022-12-23T07:31:32.157Z,22.60
2022-12-23T07:32:32.029Z,21.70
2022-12-23T07:33:32.026Z,17.90
2022-12-23T07:34:32.030Z,18.40
2022-12-23T07:35:32.016Z,23.00
2022-12-23T07:36:32.001Z,25.20
2022-12-23T07:37:31.998Z,23.00
2022-12-23T07:38:31.973Z,19.40
2022-12-23T07:39:31.979Z,18.20
2022-12-23T07:40:31.979Z,20.80
2022-12-23T07:41:31.947Z,15.80
2022-12-23T07:42:47.385Z,19.80
2022-12-23T07:43:31.956Z,17.90
2022-12-23T07:44:31.913Z,18.20
2022-12-23T07:45:31.980Z,17.80
2022-12-23T07:46:31.949Z,18.60
2022-12-23T07:47:31.872Z,16.30
2022-12-23T07:48:31.869Z,18.40
2022-12-23T07:49:31.863Z,17.00
2022-12-23T07:50:31.858Z,19.40
2022-12-23T07:51:31.829Z,20.20
2022-12-23T07:52:31.815Z,18.10
2022-12-23T07:53:31.812Z,17.70
2022-12-23T07:54:31.793Z,18.80
2022-12-23T07:55:31.802Z,17.30
2022-12-23T07:56:31.785Z,19.40
2022-12-23T07:57:31.756Z,16.60
2022-12-23T07:58:31.751Z,19.40
2022-12-23T07:59:31.740Z,18.90
2022-12-23T08:00:31.737Z,18.40
2022-12-23T08:01:31.883Z,20.20
2022-12-23T08:02:32.040Z,21.10
2022-12-23T08:03:31.756Z,17.50
2022-12-23T08:04:31.727Z,22.80
2022-12-23T08:05:31.778Z,19.20
2022-12-23T08:06:31.667Z,17.30
2022-12-23T08:07:31.651Z,18.60
2022-12-23T08:08:31.648Z,14.50
2022-12-23T08:09:31.634Z,17.90
2022-12-23T08:10:31.639Z,19.70
2022-12-23T08:11:31.606Z,17.80
2022-12-23T08:12:31.610Z,17.70
2022-12-23T08:13:31.608Z,18.50
2022-12-23T08:14:31.571Z,18.30
2022-12-23T08:15:31.579Z,21.80
2022-12-23T08:16:34.318Z,24.80
2022-12-23T08:17:31.564Z,23.10
2022-12-23T08:18:31.569Z,23.30
2022-12-23T08:19:31.543Z,18.10
2022-12-23T08:20:31.522Z,17.70
2022-12-23T08:21:31.542Z,19.70
2022-12-23T08:22:31.489Z,14.70
2022-12-23T08:23:31.482Z,15.10
2022-12-23T08:24:31.465Z,18.10
2022-12-23T08:25:31.460Z,15.70
2022-12-23T08:26:31.484Z,16.10
2022-12-23T08:27:31.465Z,19.10
2022-12-23T08:28:31.423Z,21.50
2022-12-23T08:29:36.203Z,19.90
2022-12-23T08:30:31.460Z,23.40
2022-12-23T08:31:31.555Z,20.90
2022-12-23T08:32:31.472Z,20.80
2022-12-23T08:33:31.376Z,19.20
2022-12-23T08:34:31.425Z,18.80
2022-12-23T08:35:31.420Z,17.10
2022-12-23T08:36:31.343Z,16.40
2022-12-23T08:37:31.343Z,16.10
2022-12-23T08:38:31.360Z,19.10
2022-12-23T08:39:31.300Z,16.80
2022-12-23T08:40:31.297Z,18.90
2022-12-23T08:41:31.271Z,21.00
2022-12-23T08:42:31.267Z,19.70
2022-12-23T08:43:35.740Z,23.40
2022-12-23T08:44:31.258Z,19.70
2022-12-23T08:45:31.251Z,17.50
2022-12-23T08:46:31.303Z,20.10
2022-12-23T08:47:31.206Z,22.20
2022-12-23T08:48:31.273Z,17.30
2022-12-23T08:49:31.205Z,23.30
2022-12-23T08:50:31.182Z,20.10
2022-12-23T08:51:31.211Z,22.60
2022-12-23T08:52:31.161Z,22.40
2022-12-23T08:53:31.165Z,19.80
2022-12-23T08:54:31.130Z,18.90
2022-12-23T08:55:31.135Z,20.30
2022-12-23T08:56:31.180Z,18.00
2022-12-23T08:57:31.168Z,19.80
2022-12-23T08:58:31.129Z,18.90
2022-12-23T08:59:31.142Z,21.60
2022-12-23T09:00:31.063Z,16.80
2022-12-23T09:01:31.459Z,19.40
2022-12-23T09:02:31.400Z,17.20
2022-12-23T09:03:31.223Z,17.50
2022-12-23T09:04:31.306Z,19.50
2022-12-23T09:05:31.394Z,20.40
2022-12-23T09:06:31.216Z,18.00
2022-12-23T09:07:31.133Z,16.40
2022-12-23T09:08:31.093Z,18.60
2022-12-23T09:09:31.317Z,19.60
2022-12-23T09:10:31.547Z,14.70
2022-12-23T09:11:31.185Z,17.10
2022-12-23T09:12:31.138Z,21.20
2022-12-23T09:13:35.638Z,18.40
2022-12-23T09:14:30.991Z,17.30
2022-12-23T09:15:31.199Z,19.00
2022-12-23T09:16:31.040Z,18.10
2022-12-23T09:17:30.977Z,15.80
2022-12-23T09:18:31.444Z,17.30
2022-12-23T09:19:31.055Z,16.10
2022-12-23T09:20:30.962Z,16.50
2022-12-23T09:21:31.083Z,19.20
2022-12-23T09:22:31.291Z,16.20
2022-12-23T09:23:30.960Z,14.30
2022-12-23T09:24:31.076Z,14.90
2022-12-23T09:25:31.097Z,14.80
2022-12-23T09:26:30.824Z,14.40
2022-12-23T09:27:30.874Z,15.70
2022-12-23T09:28:30.987Z,14.40
2022-12-23T09:29:30.946Z,14.70
2022-12-23T09:30:30.738Z,15.60
2022-12-23T09:31:36.902Z,15.20
2022-12-23T09:32:30.736Z,15.20
2022-12-23T09:33:30.862Z,14.90
2022-12-23T09:34:30.953Z,16.10
2022-12-23T09:35:30.769Z,12.90
2022-12-23T09:36:30.849Z,13.90
2022-12-23T09:37:30.662Z,13.70
2022-12-23T09:38:30.653Z,17.40
2022-12-23T09:39:30.655Z,14.20
2022-12-23T09:40:30.629Z,13.00
2022-12-23T09:41:30.676Z,14.80
2022-12-23T09:42:30.597Z,13.10
2022-12-23T09:43:30.630Z,12.10
2022-12-23T09:44:30.584Z,12.00
2022-12-23T09:45:35.474Z,13.10
2022-12-23T09:46:30.920Z,12.40
2022-12-23T09:47:31.106Z,12.30
2022-12-23T09:48:30.922Z,11.80
2022-12-23T09:49:30.959Z,12.80
2022-12-23T09:50:30.739Z,13.50
2022-12-23T09:51:31.160Z,12.60
2022-12-23T09:52:30.828Z,13.20
2022-12-23T09:53:30.499Z,11.20
2022-12-23T09:54:30.490Z,11.50
2022-12-23T09:55:30.459Z,11.90
2022-12-23T09:56:30.489Z,11.70
2022-12-23T09:57:30.445Z,11.50
2022-12-23T09:58:30.472Z,11.90
2022-12-23T09:59:30.433Z,12.30
2022-12-23T10:00:30.446Z,11.60
2022-12-23T10:01:30.540Z,11.70
2022-12-23T10:02:30.606Z,11.70
2022-12-23T10:03:30.653Z,11.70
2022-12-23T10:04:30.502Z,12.10
2022-12-23T10:05:30.352Z,13.00
2022-12-23T10:06:30.352Z,12.40
2022-12-23T10:07:30.754Z,12.50
2022-12-23T10:08:30.341Z,12.50
2022-12-23T10:09:30.307Z,11.20
2022-12-23T10:10:30.334Z,11.60
2022-12-23T10:11:30.319Z,11.60
2022-12-23T10:12:34.344Z,12.40
2022-12-23T10:13:30.289Z,12.60
2022-12-23T10:14:30.269Z,12.10
2022-12-23T10:15:30.262Z,11.80
2022-12-23T10:16:30.253Z,12.20
2022-12-23T10:17:30.242Z,12.10
2022-12-23T10:18:30.263Z,13.00
2022-12-23T10:19:30.306Z,13.00
2022-12-23T10:20:30.195Z,13.10
2022-12-23T10:21:30.233Z,11.90
2022-12-23T10:22:30.166Z,12.60
2022-12-23T10:23:30.175Z,12.20
2022-12-23T10:24:30.139Z,11.50
2022-12-23T10:25:30.146Z,13.30
2022-12-23T10:26:30.109Z,12.90
2022-12-23T10:27:30.097Z,12.50
2022-12-23T10:28:30.255Z,12.90
2022-12-23T10:29:30.097Z,12.40
2022-12-23T10:31:40.342Z,13.30
2022-12-23T10:32:30.084Z,13.10
2022-12-23T10:33:30.039Z,12.70
2022-12-23T10:34:36.606Z,12.90
2022-12-23T10:35:30.036Z,12.50
2022-12-23T10:36:30.048Z,12.50
2022-12-23T10:37:36.547Z,14.10
2022-12-23T10:38:29.971Z,13.30
2022-12-23T10:39:29.994Z,13.90
2022-12-23T10:40:29.949Z,13.20
2022-12-23T10:41:29.952Z,13.30
2022-12-23T10:42:29.933Z,13.00
2022-12-23T10:43:30.083Z,11.90
2022-12-23T10:44:29.931Z,12.70
2022-12-23T10:45:29.898Z,13.50
2022-12-23T10:46:29.995Z,13.40
2022-12-23T10:47:29.876Z,12.80
2022-12-23T10:48:29.864Z,13.30
2022-12-23T10:49:29.855Z,13.10
2022-12-23T10:50:29.859Z,12.60
2022-12-23T10:51:29.832Z,12.50
2022-12-23T10:52:29.825Z,13.70
2022-12-23T10:53:29.929Z,13.00
2022-12-23T10:54:29.790Z,13.00
2022-12-23T10:55:33.551Z,12.70
2022-12-23T10:56:29.784Z,13.40
2022-12-23T10:57:29.757Z,13.20
2022-12-23T10:58:29.763Z,12.30
2022-12-23T10:59:29.752Z,12.70
2022-12-23T11:00:29.845Z,13.80
2022-12-23T11:01:29.889Z,12.10
2022-12-23T11:02:29.999Z,12.90
2022-12-23T11:03:30.012Z,12.60
2022-12-23T11:04:29.690Z,13.70
2022-12-23T11:05:29.678Z,13.00
2022-12-23T11:06:36.614Z,12.60
2022-12-23T11:07:46.165Z,13.20
2022-12-23T11:08:29.646Z,13.00
2022-12-23T11:09:29.627Z,13.20
2022-12-23T11:10:29.621Z,12.20
2022-12-23T11:11:31.654Z,11.90
2022-12-23T11:12:29.685Z,12.50
2022-12-23T11:13:29.644Z,13.30
2022-12-23T11:14:29.575Z,11.50
2022-12-23T11:15:29.573Z,12.80
2022-12-23T11:16:29.633Z,13.20
2022-12-23T11:17:29.553Z,14.10
2022-12-23T11:18:30.878Z,12.50
2022-12-23T11:19:29.529Z,13.10
2022-12-23T11:20:29.523Z,13.10
2022-12-23T11:21:29.495Z,12.50
2022-12-23T11:22:29.503Z,12.20
2022-12-23T11:23:29.599Z,13.60
2022-12-23T11:24:29.476Z,13.50
2022-12-23T11:25:29.452Z,13.60
2022-12-23T11:26:29.441Z,13.70
2022-12-23T11:27:29.439Z,13.00
2022-12-23T11:28:29.427Z,13.80
2022-12-23T11:29:29.417Z,13.40
2022-12-23T11:30:30.741Z,13.30
2022-12-23T11:31:29.451Z,12.50
2022-12-23T11:32:29.369Z,12.90
2022-12-23T11:33:29.356Z,12.20
2022-12-23T11:34:29.401Z,12.50
2022-12-23T11:35:29.530Z,12.40
2022-12-23T11:36:29.335Z,12.30
2022-12-23T11:37:29.330Z,11.90
2022-12-23T11:38:29.307Z,12.20
2022-12-23T11:39:29.306Z,11.80
2022-12-23T11:40:29.308Z,12.50
2022-12-23T11:41:29.285Z,12.80
2022-12-23T11:42:29.266Z,12.60
2022-12-23T11:43:29.268Z,13.00
2022-12-23T11:44:29.235Z,12.90
2022-12-23T11:45:29.283Z,12.20
2022-12-23T11:46:29.297Z,12.60
2022-12-23T11:47:29.321Z,12.80
2022-12-23T11:48:29.226Z,13.00
2022-12-23T11:49:29.186Z,12.70
2022-12-23T11:50:29.201Z,11.70
2022-12-23T11:51:29.167Z,11.90
2022-12-23T11:52:29.152Z,13.10
2022-12-23T11:53:29.138Z,11.60
2022-12-23T11:54:29.139Z,12.10
2022-12-23T11:55:29.160Z,12.80
2022-12-23T11:56:29.173Z,11.80
2022-12-23T11:57:29.099Z,11.70
2022-12-23T11:58:29.100Z,12.60
2022-12-23T11:59:29.078Z,12.90
2022-12-23T12:00:29.079Z,12.40
2022-12-23T12:01:29.069Z,11.90
2022-12-23T12:02:29.093Z,12.80
2022-12-23T12:03:29.130Z,12.90
2022-12-23T12:04:29.020Z,13.30
2022-12-23T12:05:29.272Z,12.30
2022-12-23T12:06:29.025Z,13.10
2022-12-23T12:07:29.007Z,12.90
2022-12-23T12:08:28.970Z,12.10
2022-12-23T12:09:28.957Z,12.50
2022-12-23T12:10:28.959Z,12.10
2022-12-23T12:11:28.958Z,12.50
2022-12-23T12:12:28.924Z,13.50
2022-12-23T12:13:28.923Z,13.90
2022-12-23T12:14:28.910Z,13.20
2022-12-23T12:15:28.907Z,13.10
2022-12-23T12:16:29.232Z,12.50
2022-12-23T12:17:28.885Z,13.50
2022-12-23T12:18:28.857Z,12.80
2022-12-23T12:19:29.100Z,13.60
2022-12-23T12:20:28.835Z,13.00
2022-12-23T12:21:28.843Z,12.50
2022-12-23T12:22:28.809Z,13.60
2022-12-23T12:23:28.821Z,13.40
2022-12-23T12:24:28.843Z,14.20
2022-12-23T12:25:28.789Z,14.10
2022-12-23T12:26:28.795Z,13.10
2022-12-23T12:27:29.636Z,13.20
2022-12-23T12:28:28.747Z,13.10
2022-12-23T12:29:28.734Z,11.80
2022-12-23T12:30:28.752Z,13.70
2022-12-23T12:31:28.787Z,12.80
2022-12-23T12:32:28.703Z,11.90
2022-12-23T12:33:28.717Z,13.70
2022-12-23T12:34:28.684Z,13.50
2022-12-23T12:35:28.669Z,13.40
2022-12-23T12:36:28.709Z,13.30
2022-12-23T12:37:28.642Z,14.30
2022-12-23T12:38:28.774Z,14.10
2022-12-23T12:39:28.677Z,13.70
2022-12-23T12:40:28.631Z,15.80
2022-12-23T12:41:28.676Z,13.40
2022-12-23T12:42:28.611Z,13.70
2022-12-23T12:43:28.600Z,14.20
2022-12-23T12:44:28.570Z,11.80
2022-12-23T12:45:28.631Z,12.60
2022-12-23T12:46:28.611Z,13.40
2022-12-23T12:47:52.782Z,13.70
2022-12-23T12:48:28.549Z,13.30
2022-12-23T12:49:28.519Z,13.60
2022-12-23T12:50:28.542Z,12.70
2022-12-23T12:51:28.489Z,14.30
2022-12-23T12:52:28.477Z,13.60
2022-12-23T12:53:28.475Z,13.50